createdAt,value
2018-09-05T07:09:44.375Z,97009.62
2018-09-05T07:11:20.000Z,97005.64
2018-09-05T07:12:55.323Z,97009.45
2018-09-05T07:14:31.045Z,97010.58
2018-09-05T07:16:06.157Z,97013.82
2018-09-05T07:17:41.189Z,97011.27
2018-09-05T07:19:18.065Z,97005.69
2018-09-05T07:21:05.689Z,97007.55
2018-09-05T07:22:32.683Z,97016.88
2018-09-05T07:24:09.590Z,97009.30
2018-09-05T07:25:45.274Z,97015.03
2018-09-05T07:27:21.548Z,97012.95
2018-09-05T07:28:56.766Z,97012.72
2018-09-05T07:30:33.314Z,97013.78
2018-09-05T07:32:08.711Z,97015.14
2018-09-05T07:33:45.926Z,97015.82
2018-09-05T07:35:20.930Z,97014.31
2018-09-05T07:36:57.698Z,97012.23
2018-09-05T07:38:34.920Z,97015.00
2018-09-05T07:40:12.914Z,97021.19
2018-09-05T07:41:50.479Z,97017.75
2018-09-05T07:43:26.707Z,97020.55
2018-09-05T07:45:03.852Z,97015.06
2018-09-05T07:46:40.907Z,97015.77
2018-09-05T07:48:17.346Z,97014.80
2018-09-05T07:49:53.683Z,97012.44
2018-09-05T07:51:29.019Z,97008.67
2018-09-05T07:53:06.741Z,97012.09
2018-09-05T07:54:41.885Z,97015.41
2018-09-05T07:56:17.338Z,97008.13
2018-09-05T07:57:52.324Z,97009.09
2018-09-05T07:59:29.801Z,97010.16
2018-09-05T08:01:07.198Z,97008.25
2018-09-05T08:02:45.012Z,97003.88
2018-09-05T08:04:20.293Z,97004.36
2018-09-05T08:05:56.876Z,97005.86
2018-09-05T08:07:32.795Z,96999.08
2018-09-05T08:09:13.108Z,96997.02
2018-09-05T08:10:49.392Z,97003.05
2018-09-05T08:12:25.265Z,97003.51
2018-09-05T08:14:00.458Z,97002.95
2018-09-05T08:15:36.402Z,97002.85
2018-09-05T08:17:15.248Z,97003.50
2018-09-05T08:18:50.295Z,97000.82
2018-09-05T08:20:28.662Z,97001.66
2018-09-05T08:22:04.682Z,96996.24
2018-09-05T08:23:42.101Z,97003.83
2018-09-05T08:25:20.110Z,97007.91
2018-09-05T08:26:55.741Z,97001.24
2018-09-05T08:28:31.717Z,97009.17
2018-09-05T08:30:08.048Z,97003.70
2018-09-05T08:31:43.631Z,97005.64
2018-09-05T08:33:20.030Z,97002.64
2018-09-05T08:34:55.929Z,97004.69
2018-09-05T08:36:31.076Z,97007.06
2018-09-05T08:38:05.834Z,97000.37
2018-09-05T08:39:41.523Z,97006.95
2018-09-05T08:41:17.051Z,97002.30
2018-09-05T08:42:52.979Z,97004.64
2018-09-05T08:44:29.259Z,96999.94
2018-09-05T08:46:04.771Z,96999.50
2018-09-05T08:47:42.489Z,96999.19
2018-09-05T08:49:18.337Z,96995.64
2018-09-05T08:50:53.327Z,96997.34
2018-09-05T08:52:28.401Z,96996.47
2018-09-05T08:54:05.086Z,96996.27
2018-09-05T08:55:40.768Z,96995.80
2018-09-05T08:57:18.296Z,96999.48
2018-09-05T08:58:55.058Z,96996.55
2018-09-05T09:00:33.441Z,97000.36
2018-09-05T09:02:09.323Z,96996.09
2018-09-05T09:03:44.303Z,96999.78
2018-09-05T09:05:19.206Z,96995.19
2018-09-05T09:06:57.456Z,96998.48
2018-09-05T09:08:32.513Z,96992.55
2018-09-05T09:10:08.517Z,96990.83
2018-09-05T09:11:43.544Z,96986.95
2018-09-05T09:13:27.684Z,96989.09
2018-09-05T09:15:05.984Z,96991.75
2018-09-05T09:16:42.661Z,96990.67
2018-09-05T09:18:18.072Z,96985.83
2018-09-05T09:19:55.187Z,96991.84
2018-09-05T09:21:30.225Z,96982.95
2018-09-05T09:23:05.346Z,96989.55
2018-09-05T09:24:40.753Z,96985.95
2018-09-05T09:26:19.397Z,96986.84
2018-09-05T09:27:54.681Z,96981.86
2018-09-05T09:29:30.303Z,96984.58
2018-09-05T09:31:05.862Z,96982.18
2018-09-05T09:32:49.241Z,96979.95
2018-09-05T09:34:28.628Z,96981.92
2018-09-05T09:36:06.764Z,96976.02
2018-09-05T09:38:12.220Z,96983.63
2018-09-05T09:39:50.539Z,96978.95
2018-09-05T09:41:28.269Z,96978.46
2018-09-05T09:43:03.368Z,96976.31
2018-09-05T09:44:40.061Z,96976.50
2018-09-05T09:46:15.741Z,96972.73
2018-09-05T09:47:51.973Z,96974.83
2018-09-05T09:49:28.010Z,96973.93
2018-09-05T09:51:03.219Z,96977.45
2018-09-05T09:52:40.745Z,96972.26
2018-09-05T09:54:16.420Z,96969.92
2018-09-05T09:55:54.395Z,96968.97
2018-09-05T09:57:31.279Z,96971.77
2018-09-05T09:59:06.467Z,96970.58
2018-09-05T10:00:47.356Z,96961.70
2018-09-05T10:02:27.451Z,96966.52
2018-09-05T10:04:08.519Z,96967.11
2018-09-05T10:05:49.285Z,96967.17
2018-09-05T10:07:29.701Z,96962.74
2018-09-05T10:09:10.065Z,96964.60
2018-09-05T10:10:50.746Z,96964.56
2018-09-05T10:12:32.331Z,96960.41
2018-09-05T10:14:16.884Z,96958.03
2018-09-05T10:15:56.829Z,96957.12
2018-09-05T10:17:35.476Z,96956.15
2018-09-05T10:19:33.321Z,96956.25
2018-09-05T10:21:09.984Z,96953.27
2018-09-05T10:22:47.418Z,96953.09
2018-09-05T10:24:29.506Z,96954.30
2018-09-05T10:26:05.080Z,96949.36
2018-09-05T10:27:41.606Z,96947.71
2018-09-05T10:29:16.980Z,96945.34
2018-09-05T10:30:52.576Z,96939.64
2018-09-05T10:32:28.259Z,96948.91
2018-09-05T10:34:05.195Z,96940.41
2018-09-05T10:35:40.445Z,96939.88
2018-09-05T10:37:17.230Z,96942.88
2018-09-05T10:38:52.630Z,96942.74
2018-09-05T10:40:28.227Z,96939.19
2018-09-05T10:42:03.469Z,96935.55
2018-09-05T10:43:50.366Z,96940.48
2018-09-05T10:45:32.351Z,96939.19
2018-09-05T10:47:08.344Z,96938.03
2018-09-05T10:48:43.313Z,96935.53
2018-09-05T10:50:19.553Z,96938.63
2018-09-05T10:51:56.834Z,96939.63
2018-09-05T10:53:36.200Z,96933.05
2018-09-05T10:55:14.024Z,96936.47
2018-09-05T10:56:49.527Z,96932.34
2018-09-05T10:58:26.170Z,96929.11
2018-09-05T11:00:04.343Z,96930.30
2018-09-05T11:01:43.374Z,96929.65
2018-09-05T11:03:20.917Z,96928.28
2018-09-05T11:04:56.917Z,96928.23
2018-09-05T11:06:37.677Z,96924.92
2018-09-05T11:08:15.373Z,96926.50
2018-09-05T11:09:50.552Z,96922.73
2018-09-05T11:11:27.203Z,96927.23
2018-09-05T11:13:03.531Z,96923.76
2018-09-05T11:14:39.693Z,96917.93
2018-09-05T11:16:15.273Z,96924.05
2018-09-05T11:17:50.713Z,96924.88
2018-09-05T11:19:27.856Z,96920.24
2018-09-05T11:21:11.289Z,96920.91
2018-09-05T11:22:47.965Z,96916.28
2018-09-05T11:24:24.315Z,96913.95
2018-09-05T11:26:02.366Z,96909.83
2018-09-05T11:27:40.419Z,96905.02
2018-09-05T11:29:16.357Z,96906.82
2018-09-05T11:30:52.248Z,96908.88
2018-09-05T11:32:30.565Z,96909.36
2018-09-05T11:34:07.565Z,96911.72
2018-09-05T11:35:42.626Z,96906.83
2018-09-05T11:37:18.308Z,96909.75
2018-09-05T11:38:56.611Z,96914.30
2018-09-05T11:40:33.833Z,96914.84
2018-09-05T11:42:08.722Z,96904.57
2018-09-05T11:43:43.896Z,96909.88
2018-09-05T11:45:19.897Z,96904.23
2018-09-05T11:46:55.501Z,96899.47
2018-09-05T11:48:30.461Z,96900.67
2018-09-05T11:50:05.840Z,96901.97
2018-09-05T11:51:43.943Z,96905.95
2018-09-05T11:53:19.922Z,96903.92
2018-09-05T11:55:33.253Z,96900.27
2018-09-05T11:57:09.052Z,96906.04
2018-09-05T11:58:44.829Z,96900.00
2018-09-05T12:00:20.719Z,96901.89
2018-09-05T12:01:57.660Z,96909.22
2018-09-05T12:03:34.794Z,96904.83
2018-09-05T12:05:12.587Z,96901.29
2018-09-05T12:06:49.122Z,96899.33
2018-09-05T12:08:24.352Z,96896.59
2018-09-05T12:09:59.826Z,96906.27
2018-09-05T12:11:36.187Z,96897.59
2018-09-05T12:13:11.643Z,96901.22
2018-09-05T12:14:47.261Z,96901.39
2018-09-05T12:16:23.574Z,96902.44
2018-09-05T12:18:00.784Z,96899.23
2018-09-05T12:19:37.476Z,96891.76
2018-09-05T12:21:12.981Z,96887.02
2018-09-05T12:22:49.278Z,96888.69
2018-09-05T12:24:26.707Z,96889.88
2018-09-05T12:27:46.232Z,96887.23
2018-09-05T12:29:24.109Z,96893.32
2018-09-05T12:30:59.627Z,96890.67
2018-09-05T12:32:35.283Z,96887.16
2018-09-05T12:34:25.581Z,96890.63
2018-09-05T12:36:00.900Z,96876.80
2018-09-05T12:37:36.536Z,96886.44
2018-09-05T12:39:14.666Z,96871.13
2018-09-05T12:40:56.698Z,96881.31
2018-09-05T12:42:33.733Z,96877.37
2018-09-05T12:44:12.098Z,96878.77
2018-09-05T12:45:49.795Z,96880.74
2018-09-05T12:47:26.478Z,96878.72
2018-09-05T12:49:03.974Z,96879.48
2018-09-05T12:50:44.507Z,96878.94
2018-09-05T12:52:21.504Z,96880.86
2018-09-05T12:54:01.665Z,96877.00
2018-09-05T12:55:38.300Z,96883.48
2018-09-05T12:57:14.129Z,96876.97
2018-09-05T12:58:49.457Z,96878.06
2018-09-05T13:00:26.939Z,96873.32
2018-09-05T13:02:05.810Z,96869.84
2018-09-05T13:03:43.371Z,96874.60
2018-09-05T13:05:19.915Z,96871.31
2018-09-05T13:06:58.141Z,96869.44
2018-09-05T13:08:34.561Z,96867.92
2018-09-05T13:10:10.632Z,96867.97
2018-09-05T13:11:47.416Z,96870.15
2018-09-05T13:13:23.903Z,96865.16
2018-09-05T13:15:03.701Z,96861.83
2018-09-05T13:16:44.117Z,96857.73
2018-09-05T13:18:22.656Z,96862.76
2018-09-05T13:20:00.253Z,96863.15
2018-09-05T13:21:57.699Z,96864.09
2018-09-05T13:23:43.055Z,96861.99
2018-09-05T13:25:29.674Z,96857.14
2018-09-05T13:27:07.530Z,96859.34
2018-09-05T13:28:48.556Z,96852.32
2018-09-05T13:30:25.896Z,96852.96
2018-09-05T13:32:14.641Z,96850.77
2018-09-05T13:34:02.706Z,96849.77
2018-09-05T13:35:39.592Z,96848.80
2018-09-05T13:37:15.873Z,96839.83
2018-09-05T13:38:51.901Z,96841.52
2018-09-05T13:40:28.167Z,96843.19
2018-09-05T13:42:05.236Z,96840.20
2018-09-05T13:43:42.301Z,96848.35
2018-09-05T13:45:18.164Z,96840.28
2018-09-05T13:46:54.811Z,96843.08
2018-09-05T13:48:41.185Z,96839.24
2018-09-05T13:50:19.129Z,96836.36
2018-09-05T13:52:01.294Z,96842.98
2018-09-05T13:53:50.201Z,96835.70
2018-09-05T13:55:27.023Z,96833.80
2018-09-05T13:57:05.402Z,96831.20
2018-09-05T13:58:46.204Z,96830.17
2018-09-05T14:00:26.699Z,96831.73
2018-09-05T14:02:42.276Z,96824.91
2018-09-05T14:04:22.852Z,96831.38
2018-09-05T14:06:01.407Z,96825.33
2018-09-05T14:07:46.766Z,96822.13
2018-09-05T14:09:30.784Z,96821.88
2018-09-05T14:11:06.768Z,96817.67
2018-09-05T14:12:44.383Z,96820.89
2018-09-05T14:14:20.715Z,96823.25
2018-09-05T14:16:01.334Z,96821.20
2018-09-05T14:17:39.508Z,96822.53
2018-09-05T14:19:20.055Z,96820.22
2018-09-05T14:21:02.871Z,96820.11
2018-09-05T14:22:44.329Z,96821.63
2018-09-05T14:24:29.576Z,96817.73
2018-09-05T14:26:08.261Z,96820.27
2018-09-05T14:27:53.120Z,96825.05
2018-09-05T14:29:31.838Z,96818.42
2018-09-05T14:31:11.734Z,96815.02
2018-09-05T14:32:51.520Z,96811.48
2018-09-05T14:34:29.445Z,96811.20
2018-09-05T14:36:06.000Z,96815.53
2018-09-05T14:37:42.690Z,96810.88
2018-09-05T14:39:20.978Z,96809.32
2018-09-05T14:43:05.357Z,96809.27
2018-09-05T14:44:42.002Z,96808.61
2018-09-05T14:46:19.393Z,96806.45
2018-09-05T14:47:57.018Z,96803.94
2018-09-05T14:49:37.897Z,96803.09
2018-09-05T14:51:15.843Z,96810.47
2018-09-05T14:52:58.027Z,96808.98
2018-09-05T14:54:42.539Z,96809.47
2018-09-05T14:56:21.658Z,96806.56
2018-09-05T14:57:57.606Z,96811.33
2018-09-05T14:59:37.639Z,96806.48
2018-09-05T15:01:14.441Z,96807.23
2018-09-05T15:02:52.149Z,96810.84
2018-09-05T15:04:29.533Z,96804.55
2018-09-05T15:06:08.811Z,96807.24
2018-09-05T15:07:51.316Z,96802.88
2018-09-05T15:09:27.928Z,96801.30
2018-09-05T15:11:06.464Z,96803.28
2018-09-05T15:12:43.667Z,96803.88
2018-09-05T15:14:22.223Z,96802.63
2018-09-05T15:15:59.067Z,96807.98
2018-09-05T15:17:37.759Z,96800.16
2018-09-05T15:19:13.381Z,96804.55
2018-09-05T15:20:49.448Z,96796.66
2018-09-05T15:22:26.134Z,96796.55
2018-09-05T15:24:02.532Z,96794.97
2018-09-05T15:25:39.819Z,96795.83
2018-09-05T15:27:15.606Z,96797.36
2018-09-05T15:28:52.811Z,96789.13
2018-09-05T15:30:29.457Z,96786.64
2018-09-05T15:32:05.649Z,96780.28
2018-09-05T15:33:45.890Z,96785.63
2018-09-05T15:35:23.946Z,96780.44
2018-09-05T15:38:48.643Z,96781.84
2018-09-05T15:40:25.759Z,96779.50
2018-09-05T15:42:05.196Z,96780.81
2018-09-05T15:43:45.568Z,96774.28
2018-09-05T15:45:21.466Z,96770.96
2018-09-05T15:46:58.071Z,96769.44
2018-09-05T15:48:35.678Z,96768.04
2018-09-05T15:50:12.894Z,96765.06
2018-09-05T15:51:49.744Z,96764.77
2018-09-05T15:53:27.100Z,96771.57
2018-09-05T15:55:04.486Z,96765.19
2018-09-05T15:56:46.262Z,96769.29
2018-09-05T15:58:23.865Z,96767.34
2018-09-05T16:00:04.167Z,96763.03
2018-09-05T16:01:44.494Z,96770.09
2018-09-05T16:03:24.203Z,96769.78
2018-09-05T16:05:00.828Z,96761.27
2018-09-05T16:06:40.418Z,96763.31
2018-09-05T16:08:20.860Z,96766.66
2018-09-05T16:10:02.238Z,96762.91
2018-09-05T16:11:42.305Z,96763.66
2018-09-05T16:13:20.253Z,96761.77
2018-09-05T16:14:58.614Z,96765.75
2018-09-05T16:16:35.499Z,96763.17
2018-09-05T16:18:15.974Z,96764.28
2018-09-05T16:19:57.494Z,96760.63
2018-09-05T16:23:17.412Z,96760.32
2018-09-05T16:24:56.722Z,96761.53
2018-09-05T16:26:32.938Z,96757.88
2018-09-05T16:28:11.370Z,96760.25
2018-09-05T16:29:50.720Z,96759.14
2018-09-05T16:31:32.512Z,96764.02
2018-09-05T16:33:11.349Z,96762.33
2018-09-05T16:34:48.473Z,96760.58
2018-09-05T16:36:25.916Z,96763.38
2018-09-05T16:38:02.121Z,96761.77
2018-09-05T16:39:38.176Z,96762.84
2018-09-05T16:41:14.616Z,96763.52
2018-09-05T16:42:50.314Z,96762.66
2018-09-05T16:44:26.534Z,96765.67
2018-09-05T16:46:04.685Z,96758.80
2018-09-05T16:47:42.361Z,96763.22
2018-09-05T16:49:23.491Z,96765.05
2018-09-05T16:51:02.276Z,96768.59
2018-09-05T16:52:50.677Z,96762.47
2018-09-05T16:54:35.734Z,96754.94
2018-09-05T16:56:17.921Z,96760.09
2018-09-05T16:57:58.496Z,96758.72
2018-09-05T16:59:40.428Z,96754.31
2018-09-05T17:01:20.680Z,96764.52
2018-09-05T17:03:02.220Z,96767.86
2018-09-05T17:04:39.474Z,96757.02
2018-09-05T17:06:16.715Z,96756.91
2018-09-05T17:07:55.531Z,96762.16
2018-09-05T17:09:33.783Z,96756.58
2018-09-05T17:11:11.360Z,96764.20
2018-09-05T17:12:48.899Z,96759.72
2018-09-05T17:14:26.113Z,96759.78
2018-09-05T17:16:05.756Z,96760.20
2018-09-05T17:17:45.339Z,96764.18
2018-09-05T17:19:28.573Z,96769.67
2018-09-05T17:21:05.584Z,96763.45
2018-09-05T17:22:46.074Z,96765.47
2018-09-05T17:24:23.470Z,96768.69
2018-09-05T17:26:00.762Z,96767.61
2018-09-05T17:27:40.511Z,96770.80
2018-09-05T17:29:20.792Z,96775.52
2018-09-05T17:30:57.549Z,96766.91
2018-09-05T17:32:39.511Z,96778.98
2018-09-05T17:34:18.102Z,96772.73
2018-09-05T17:36:06.739Z,96785.81
2018-09-05T17:37:46.453Z,96786.09
2018-09-05T17:39:23.736Z,96777.59
2018-09-05T17:41:01.183Z,96782.61
2018-09-05T17:42:36.331Z,96782.89
2018-09-05T17:44:13.112Z,96780.38
2018-09-05T17:45:50.335Z,96784.91
2018-09-05T17:47:33.655Z,96785.41
2018-09-05T17:49:12.526Z,96785.64
2018-09-05T17:50:54.724Z,96782.13
2018-09-05T17:52:32.329Z,96785.14
2018-09-05T17:54:13.299Z,96783.01
2018-09-05T17:55:56.595Z,96778.20
2018-09-05T17:57:35.707Z,96780.47
2018-09-05T17:59:19.970Z,96776.30
2018-09-05T18:01:01.198Z,96783.09
2018-09-05T18:02:39.095Z,96779.80
2018-09-05T18:06:03.556Z,96786.77
2018-09-05T18:07:46.559Z,96783.33
2018-09-05T18:09:32.366Z,96784.30
2018-09-05T18:11:11.324Z,96780.74
2018-09-05T18:12:48.433Z,96777.94
2018-09-05T18:14:35.563Z,96781.50
2018-09-05T18:16:17.913Z,96785.85
2018-09-05T18:17:55.556Z,96781.86
2018-09-05T18:19:40.245Z,96784.17
2018-09-05T18:21:21.888Z,96787.41
2018-09-05T18:23:02.746Z,96783.44
2018-09-05T18:24:47.766Z,96780.47
2018-09-05T18:26:25.227Z,96786.84
2018-09-05T18:28:07.647Z,96786.73
2018-09-05T18:29:45.785Z,96784.50
2018-09-05T18:31:25.669Z,96789.72
2018-09-05T18:33:05.294Z,96787.58
2018-09-05T18:34:44.524Z,96785.44
2018-09-05T18:36:30.286Z,96783.93
2018-09-05T18:38:07.522Z,96783.05
2018-09-05T18:39:45.785Z,96787.75
2018-09-05T18:41:24.823Z,96780.97
2018-09-05T18:43:02.296Z,96774.41
2018-09-05T18:44:38.680Z,96774.53
2018-09-05T18:46:20.822Z,96777.31
2018-09-05T18:47:59.761Z,96779.20
2018-09-05T18:49:36.784Z,96775.16
2018-09-05T18:51:16.482Z,96784.12
2018-09-05T18:53:04.498Z,96780.23
2018-09-05T18:54:42.737Z,96783.13
2018-09-05T18:56:24.269Z,96773.91
2018-09-05T18:58:01.369Z,96777.81
2018-09-05T18:59:39.930Z,96771.88
2018-09-05T19:01:16.322Z,96772.01
2018-09-05T19:02:54.898Z,96770.17
2018-09-05T19:04:36.496Z,96777.16
2018-09-05T19:06:19.366Z,96771.09
2018-09-05T19:08:08.343Z,96778.63
2018-09-05T19:09:49.383Z,96776.77
2018-09-05T19:11:27.029Z,96773.39
2018-09-05T19:13:14.336Z,96771.25
2018-09-05T19:16:49.011Z,96772.66
2018-09-05T19:18:27.225Z,96768.00
2018-09-05T19:21:54.562Z,96768.65
2018-09-05T19:23:43.511Z,96768.14
2018-09-05T19:25:22.727Z,96766.64
2018-09-05T19:27:01.381Z,96764.25
2018-09-05T19:28:39.301Z,96767.02
2018-09-05T19:30:25.760Z,96761.22
2018-09-05T19:32:10.156Z,96768.16
2018-09-05T19:33:55.528Z,96762.73
2018-09-05T19:35:32.696Z,96765.88
2018-09-05T19:37:15.358Z,96761.84
2018-09-05T19:38:53.550Z,96759.67
2018-09-05T19:40:29.759Z,96762.19
2018-09-05T19:42:07.432Z,96757.62
2018-09-05T19:43:48.162Z,96751.44
2018-09-05T19:45:25.489Z,96750.34
2018-09-05T19:47:02.650Z,96742.39
2018-09-05T19:48:41.213Z,96748.45
2018-09-05T19:50:18.861Z,96747.81
2018-09-05T19:52:02.385Z,96744.16
2018-09-05T19:53:48.555Z,96747.28
2018-09-05T19:55:36.161Z,96749.20
2018-09-05T19:57:22.565Z,96747.18
2018-09-05T19:59:04.336Z,96747.71
2018-09-05T20:00:42.606Z,96752.02
2018-09-05T20:02:25.842Z,96748.36
2018-09-05T20:04:07.834Z,96747.84
2018-09-05T20:05:48.557Z,96745.29
2018-09-05T20:07:28.398Z,96745.69
2018-09-05T20:09:05.511Z,96742.23
2018-09-05T20:10:44.680Z,96745.29
2018-09-05T20:12:25.286Z,96739.61
2018-09-05T20:14:05.652Z,96746.05
2018-09-05T20:15:52.026Z,96741.91
2018-09-05T20:17:35.468Z,96741.88
2018-09-05T20:19:12.731Z,96741.53
2018-09-05T20:20:49.866Z,96740.91
2018-09-05T20:22:27.295Z,96740.27
2018-09-05T20:24:05.043Z,96744.17
2018-09-05T20:25:43.101Z,96744.08
2018-09-05T20:27:19.357Z,96744.57
2018-09-05T20:28:55.601Z,96742.16
2018-09-05T20:30:33.265Z,96741.53
2018-09-05T20:32:11.697Z,96740.39
2018-09-05T20:33:52.191Z,96741.42
2018-09-05T20:35:28.295Z,96738.52
2018-09-05T20:37:04.004Z,96743.96
2018-09-05T20:38:40.336Z,96741.56
2018-09-05T20:40:18.425Z,96739.02
2018-09-05T20:41:57.179Z,96740.17
2018-09-05T20:43:34.969Z,96736.89
2018-09-05T20:45:21.394Z,96734.59
2018-09-05T20:47:01.298Z,96734.61
2018-09-05T20:50:25.418Z,96738.89
2018-09-05T20:52:03.013Z,96738.39
2018-09-05T20:53:40.320Z,96730.45
2018-09-05T20:55:22.997Z,96731.45
2018-09-05T20:57:00.679Z,96734.36
2018-09-05T20:58:37.915Z,96730.31
2018-09-05T21:00:16.453Z,96735.38
2018-09-05T21:01:53.720Z,96729.55
2018-09-05T21:03:30.024Z,96736.48
2018-09-05T21:05:06.237Z,96733.59
2018-09-05T21:06:42.520Z,96733.97
2018-09-05T21:08:17.783Z,96733.58
2018-09-05T21:09:54.640Z,96732.43
2018-09-05T21:11:32.694Z,96726.27
2018-09-05T21:13:08.557Z,96729.64
2018-09-05T21:14:45.376Z,96728.27
2018-09-05T21:16:25.938Z,96729.76
2018-09-05T21:18:02.140Z,96723.57
2018-09-05T21:19:44.480Z,96726.94
2018-09-05T21:21:28.143Z,96727.93
2018-09-05T21:23:10.754Z,96730.53
2018-09-05T21:24:47.854Z,96732.15
2018-09-05T21:26:26.375Z,96727.14
2018-09-05T21:28:09.740Z,96727.11
2018-09-05T21:30:00.409Z,96727.34
2018-09-05T21:33:59.234Z,96723.67
2018-09-05T21:35:35.163Z,96723.37
2018-09-05T21:37:17.349Z,96723.59
2018-09-05T21:38:55.849Z,96720.16
2018-09-05T21:40:32.535Z,96721.88
2018-09-05T21:42:16.532Z,96722.73
2018-09-05T21:43:54.147Z,96718.80
2018-09-05T21:45:36.074Z,96722.89
2018-09-05T21:47:13.393Z,96716.83
2018-09-05T21:48:51.515Z,96717.79
2018-09-05T21:50:27.980Z,96719.39
2018-09-05T21:52:06.410Z,96712.73
2018-09-05T21:53:42.574Z,96714.55
2018-09-05T21:55:18.201Z,96709.32
2018-09-05T21:56:53.722Z,96714.22
2018-09-05T21:58:28.994Z,96709.86
2018-09-05T22:00:06.079Z,96717.83
2018-09-05T22:01:41.571Z,96714.77
2018-09-05T22:03:22.038Z,96718.45
2018-09-05T22:04:59.219Z,96714.03
2018-09-05T22:06:34.982Z,96717.67
2018-09-05T22:08:10.766Z,96711.81
2018-09-05T22:09:46.345Z,96708.86
2018-09-05T22:11:24.863Z,96711.09
2018-09-05T22:13:00.917Z,96706.16
2018-09-05T22:14:38.539Z,96705.86
2018-09-05T22:16:14.079Z,96696.22
2018-09-05T22:17:49.974Z,96700.41
2018-09-05T22:19:26.247Z,96702.09
2018-09-05T22:21:02.231Z,96696.58
2018-09-05T22:22:37.422Z,96695.93
2018-09-05T22:24:13.248Z,96692.30
2018-09-05T22:25:50.547Z,96692.09
2018-09-05T22:27:32.259Z,96693.97
2018-09-05T22:29:09.710Z,96697.23
2018-09-05T22:30:46.139Z,96696.27
2018-09-05T22:32:21.992Z,96696.00
2018-09-05T22:33:57.902Z,96701.72
2018-09-05T22:35:33.485Z,96693.90
2018-09-05T22:37:10.459Z,96703.09
2018-09-05T22:38:45.850Z,96705.62
2018-09-05T22:40:21.840Z,96698.41
2018-09-05T22:41:58.699Z,96703.31
2018-09-05T22:43:45.146Z,96705.17
2018-09-05T22:45:31.616Z,96699.48
2018-09-05T22:47:17.577Z,96697.55
2018-09-05T22:49:04.115Z,96701.77
2018-09-05T22:52:04.982Z,96703.60
2018-09-05T22:54:02.313Z,96702.08
2018-09-05T23:05:32.597Z,96707.15
2018-09-05T23:09:16.796Z,96704.39
2018-09-05T23:11:04.280Z,96705.14
2018-09-05T23:12:51.018Z,96700.86
2018-09-05T23:15:39.301Z,96699.40
2018-09-05T23:17:28.344Z,96700.23
2018-09-05T23:19:29.624Z,96696.27
2018-09-05T23:21:26.484Z,96695.94
2018-09-05T23:23:15.671Z,96696.52
2018-09-05T23:24:52.812Z,96698.56
2018-09-05T23:26:28.684Z,96693.45
2018-09-05T23:28:04.712Z,96693.86
2018-09-05T23:29:40.142Z,96697.24
2018-09-05T23:31:18.847Z,96694.62
2018-09-05T23:32:54.239Z,96690.69
2018-09-05T23:34:29.641Z,96693.13
2018-09-05T23:36:05.587Z,96691.11
2018-09-05T23:37:42.120Z,96695.47
2018-09-05T23:39:19.843Z,96694.30
2018-09-05T23:41:05.339Z,96687.88
2018-09-05T23:42:40.770Z,96689.12
2018-09-05T23:44:15.995Z,96688.08
2018-09-05T23:45:51.498Z,96685.66
2018-09-05T23:47:29.129Z,96687.53
2018-09-05T23:49:04.653Z,96684.71
2018-09-05T23:50:40.331Z,96681.56
2018-09-05T23:52:15.644Z,96681.92
2018-09-05T23:53:51.414Z,96682.75
2018-09-05T23:55:28.318Z,96688.89
2018-09-05T23:57:07.514Z,96682.34
2018-09-05T23:58:44.978Z,96681.34
